createdAt,value
2019-03-15T00:01:32.817Z,1.70
2019-03-15T00:04:01.118Z,1.80
2019-03-15T00:06:28.794Z,1.90
2019-03-15T00:08:57.379Z,1.85
2019-03-15T00:11:25.726Z,2.22
2019-03-15T00:13:53.850Z,1.42
2019-03-15T00:16:21.536Z,1.60
2019-03-15T00:18:49.387Z,1.70
2019-03-15T00:21:16.911Z,1.50
2019-03-15T00:23:44.898Z,1.62
2019-03-15T00:26:12.944Z,1.50
2019-03-15T00:28:41.032Z,1.52
2019-03-15T00:31:10.444Z,1.67
2019-03-15T00:33:38.149Z,1.55
2019-03-15T00:36:05.788Z,1.75
2019-03-15T00:38:33.738Z,1.50
2019-03-15T00:41:01.564Z,2.05
2019-03-15T00:43:28.713Z,1.65
2019-03-15T00:45:57.040Z,2.00
2019-03-15T00:48:24.993Z,1.80
2019-03-15T00:50:52.722Z,1.75
2019-03-15T00:53:20.220Z,2.02
2019-03-15T00:55:48.638Z,1.95
2019-03-15T00:58:18.167Z,1.50
2019-03-15T01:00:45.957Z,1.60
2019-03-15T01:03:13.759Z,1.50
2019-03-15T01:05:41.541Z,2.20
2019-03-15T01:08:09.279Z,1.75
2019-03-15T01:10:37.070Z,1.98
2019-03-15T01:13:05.115Z,1.40
2019-03-15T01:15:33.167Z,1.42
2019-03-15T01:18:01.227Z,1.70
2019-03-15T01:20:29.095Z,1.87
2019-03-15T01:22:57.459Z,1.50
2019-03-15T01:25:25.364Z,1.87
2019-03-15T01:27:53.430Z,1.52
2019-03-15T01:30:22.930Z,1.52
2019-03-15T01:32:50.692Z,1.87
2019-03-15T01:35:18.333Z,1.90
2019-03-15T01:37:46.128Z,1.75
2019-03-15T01:40:15.185Z,1.45
2019-03-15T01:42:42.797Z,1.80
2019-03-15T01:45:10.579Z,1.50
2019-03-15T01:47:38.672Z,2.00
2019-03-15T01:50:07.055Z,1.60
2019-03-15T01:52:34.843Z,1.57
2019-03-15T01:55:02.670Z,1.62
2019-03-15T01:57:30.703Z,1.70
2019-03-15T01:59:59.067Z,1.40
2019-03-15T02:02:27.401Z,1.50
2019-03-15T02:04:55.286Z,1.67
2019-03-15T02:07:22.911Z,1.75
2019-03-15T02:09:50.984Z,1.50
2019-03-15T02:12:18.807Z,1.82
2019-03-15T02:14:47.435Z,1.82
2019-03-15T02:17:15.432Z,1.70
2019-03-15T02:19:43.615Z,1.72
2019-03-15T02:22:11.326Z,1.57
2019-03-15T02:24:39.433Z,1.90
2019-03-15T02:27:07.672Z,1.40
2019-03-15T02:29:38.640Z,1.72
2019-03-15T02:32:26.347Z,1.70
2019-03-15T02:34:54.154Z,1.72
2019-03-15T02:37:22.602Z,1.60
2019-03-15T02:39:50.499Z,1.90
2019-03-15T02:42:18.134Z,2.08
2019-03-15T02:44:46.075Z,1.57
2019-03-15T02:47:14.139Z,1.40
2019-03-15T02:49:41.998Z,1.65
2019-03-15T02:52:10.061Z,1.57
2019-03-15T02:54:37.762Z,1.52
2019-03-15T02:57:05.532Z,1.65
2019-03-15T02:59:33.269Z,2.15
2019-03-15T03:02:01.224Z,1.60
2019-03-15T03:04:29.880Z,1.60
2019-03-15T03:06:57.923Z,1.65
2019-03-15T03:09:25.732Z,1.50
2019-03-15T03:11:53.422Z,1.52
2019-03-15T03:14:22.087Z,1.30
2019-03-15T03:16:50.581Z,1.30
2019-03-15T03:19:18.357Z,1.77
2019-03-15T03:21:46.745Z,1.45
2019-03-15T03:24:14.867Z,1.50
2019-03-15T03:26:43.163Z,1.85
2019-03-15T03:29:11.457Z,1.70
2019-03-15T03:31:39.460Z,1.60
2019-03-15T03:34:07.225Z,1.70
2019-03-15T03:36:34.981Z,1.70
2019-03-15T03:39:03.647Z,1.85
2019-03-15T03:41:31.653Z,1.80
2019-03-15T03:43:59.568Z,1.67
2019-03-15T03:46:27.776Z,1.60
2019-03-15T03:48:56.275Z,1.52
2019-03-15T03:51:24.139Z,1.45
2019-03-15T03:53:52.298Z,1.32
2019-03-15T03:56:20.540Z,1.70
2019-03-15T03:58:49.177Z,1.37
2019-03-15T04:01:17.043Z,1.50
2019-03-15T04:03:44.812Z,1.40
2019-03-15T04:06:12.673Z,1.40
2019-03-15T04:08:40.833Z,1.65
2019-03-15T04:11:08.563Z,1.77
2019-03-15T04:13:37.636Z,1.80
2019-03-15T04:16:05.465Z,1.67
2019-03-15T04:18:33.264Z,1.57
2019-03-15T04:21:01.390Z,1.57
2019-03-15T04:23:29.521Z,1.82
2019-03-15T04:26:00.782Z,1.37
2019-03-15T04:28:28.810Z,1.45
2019-03-15T04:30:56.807Z,1.52
2019-03-15T04:33:25.116Z,1.70
2019-03-15T04:35:53.077Z,1.62
2019-03-15T04:38:21.773Z,1.47
2019-03-15T04:40:49.871Z,1.65
2019-03-15T04:43:17.674Z,1.65
2019-03-15T04:45:45.795Z,1.70
2019-03-15T04:48:13.601Z,1.77
2019-03-15T04:50:41.551Z,1.75
2019-03-15T04:53:09.511Z,1.37
2019-03-15T04:55:37.420Z,1.50
2019-03-15T04:58:05.321Z,1.47
2019-03-15T05:00:33.609Z,1.75
2019-03-15T05:03:01.505Z,1.45
2019-03-15T05:05:29.314Z,1.50
2019-03-15T05:07:58.507Z,1.65
2019-03-15T05:10:26.666Z,1.70
2019-03-15T05:12:55.078Z,1.37
2019-03-15T05:15:23.633Z,1.62
2019-03-15T05:17:51.757Z,1.40
2019-03-15T05:20:21.166Z,1.60
2019-03-15T05:22:49.394Z,1.98
2019-03-15T05:25:17.588Z,1.65
2019-03-15T05:27:45.748Z,1.42
2019-03-15T05:30:13.982Z,1.65
2019-03-15T05:32:41.844Z,1.60
2019-03-15T05:35:09.735Z,1.67
2019-03-15T05:37:37.475Z,1.65
2019-03-15T05:40:05.891Z,1.67
2019-03-15T05:42:33.736Z,1.60
2019-03-15T05:45:02.111Z,1.70
2019-03-15T05:47:30.272Z,1.50
2019-03-15T05:49:58.855Z,1.42
2019-03-15T05:52:26.603Z,1.40
2019-03-15T05:54:54.695Z,1.55
2019-03-15T05:57:22.814Z,1.30
2019-03-15T05:59:51.494Z,1.40
2019-03-15T06:02:19.362Z,1.45
2019-03-15T06:04:47.701Z,1.60
2019-03-15T06:07:15.993Z,1.52
2019-03-15T06:09:44.338Z,1.40
2019-03-15T06:12:12.451Z,1.70
2019-03-15T06:14:40.890Z,1.70
2019-03-15T06:17:08.977Z,2.00
2019-03-15T06:19:37.046Z,2.22
2019-03-15T06:22:05.192Z,1.82
2019-03-15T06:24:33.024Z,1.70
2019-03-15T06:27:00.811Z,1.72
2019-03-15T06:29:31.217Z,1.72
2019-03-15T06:31:59.111Z,1.80
2019-03-15T06:34:26.880Z,1.82
2019-03-15T06:36:54.695Z,2.08
2019-03-15T06:39:22.614Z,2.37
2019-03-15T06:41:50.584Z,1.90
2019-03-15T06:44:19.140Z,2.17
2019-03-15T06:46:48.105Z,1.90
2019-03-15T06:49:16.691Z,2.10
2019-03-15T06:51:44.591Z,2.00
2019-03-15T06:54:12.888Z,2.30
2019-03-15T06:56:40.691Z,2.33
2019-03-15T06:59:09.660Z,1.92
2019-03-15T07:01:38.020Z,2.08
2019-03-15T07:04:05.816Z,2.15
2019-03-15T07:06:33.638Z,2.05
2019-03-15T07:09:02.077Z,2.05
2019-03-15T07:11:30.146Z,1.87
2019-03-15T07:13:57.953Z,1.67
2019-03-15T07:16:25.767Z,1.82
2019-03-15T07:18:54.292Z,2.00
2019-03-15T07:21:22.575Z,1.80
2019-03-15T07:23:50.496Z,2.08
2019-03-15T07:26:18.555Z,1.87
2019-03-15T07:28:46.867Z,1.98
2019-03-15T07:31:14.704Z,1.70
2019-03-15T07:33:43.599Z,1.77
2019-03-15T07:36:11.414Z,1.52
2019-03-15T07:38:39.680Z,2.30
2019-03-15T07:41:07.592Z,1.60
2019-03-15T07:43:35.992Z,2.00
2019-03-15T07:46:05.276Z,1.80
2019-03-15T07:48:33.008Z,1.80
2019-03-15T07:51:00.915Z,1.67
2019-03-15T07:53:29.076Z,1.77
2019-03-15T07:55:56.861Z,1.75
2019-03-15T07:58:24.566Z,1.62
2019-03-15T08:00:52.403Z,1.60
2019-03-15T08:03:20.870Z,1.70
2019-03-15T08:05:49.126Z,2.10
2019-03-15T08:08:17.694Z,1.65
2019-03-15T08:10:45.474Z,1.55
2019-03-15T08:13:14.074Z,1.75
2019-03-15T08:15:41.890Z,1.50
2019-03-15T08:18:10.119Z,2.17
2019-03-15T08:20:38.320Z,1.62
2019-03-15T08:23:08.636Z,1.75
2019-03-15T08:25:36.652Z,1.75
2019-03-15T08:28:04.944Z,1.70
2019-03-15T08:30:32.688Z,1.60
2019-03-15T08:33:10.141Z,1.70
2019-03-15T08:35:31.980Z,1.95
2019-03-15T08:37:59.796Z,1.77
2019-03-15T08:40:28.001Z,1.62
2019-03-15T08:42:56.089Z,1.90
2019-03-15T08:45:24.128Z,1.52
2019-03-15T08:47:51.852Z,1.70
2019-03-15T08:50:24.278Z,1.60
2019-03-15T08:52:53.781Z,1.67
2019-03-15T08:55:20.905Z,1.65
2019-03-15T08:57:49.326Z,1.40
2019-03-15T09:00:17.662Z,1.60
2019-03-15T09:02:45.941Z,1.32
2019-03-15T09:05:13.750Z,1.60
2019-03-15T09:07:41.560Z,1.50
2019-03-15T09:10:22.000Z,1.52
2019-03-15T09:12:39.714Z,1.90
2019-03-15T09:15:07.947Z,1.70
2019-03-15T09:17:35.934Z,1.40
2019-03-15T09:20:05.087Z,1.65
2019-03-15T09:22:32.924Z,1.57
2019-03-15T09:25:01.467Z,1.57
2019-03-15T09:27:30.905Z,1.55
2019-03-15T09:29:58.824Z,1.70
2019-03-15T09:32:27.006Z,1.32
2019-03-15T09:34:55.852Z,1.57
2019-03-15T09:37:24.680Z,1.60
2019-03-15T09:39:53.218Z,1.35
2019-03-15T09:42:21.379Z,1.60
2019-03-15T09:44:49.517Z,1.30
2019-03-15T09:47:17.333Z,1.37
2019-03-15T09:49:46.102Z,1.82
2019-03-15T09:52:14.702Z,1.40
2019-03-15T09:54:42.795Z,1.57
2019-03-15T09:57:10.838Z,1.52
2019-03-15T09:59:39.037Z,1.32
2019-03-15T10:02:08.004Z,1.07
2019-03-15T10:04:36.289Z,1.37
2019-03-15T10:07:04.455Z,1.50
2019-03-15T10:09:45.128Z,1.35
2019-03-15T10:12:02.149Z,1.45
2019-03-15T10:14:30.539Z,1.20
2019-03-15T10:16:58.702Z,1.80
2019-03-15T10:19:29.517Z,1.40
2019-03-15T10:21:56.248Z,1.37
2019-03-15T10:24:25.841Z,1.30
2019-03-15T10:26:53.948Z,1.72
2019-03-15T10:29:22.129Z,1.50
2019-03-15T10:31:50.313Z,1.50
2019-03-15T10:34:18.772Z,1.22
2019-03-15T10:36:46.851Z,1.60
2019-03-15T10:39:14.654Z,1.42
2019-03-15T10:41:42.879Z,1.57
2019-03-15T10:44:10.681Z,1.40
2019-03-15T10:46:38.599Z,1.40
2019-03-15T10:49:06.608Z,1.50
2019-03-15T10:51:34.385Z,1.20
2019-03-15T10:54:02.381Z,1.35
2019-03-15T10:56:30.112Z,1.32
2019-03-15T10:58:58.645Z,1.10
2019-03-15T11:01:26.519Z,1.57
2019-03-15T11:03:55.067Z,1.50
2019-03-15T11:06:22.808Z,1.45
2019-03-15T11:08:52.195Z,1.40
2019-03-15T11:11:20.358Z,1.50
2019-03-15T11:13:48.613Z,1.30
2019-03-15T11:16:16.883Z,1.25
2019-03-15T11:18:44.823Z,1.02
2019-03-15T11:21:12.604Z,1.27
2019-03-15T11:23:41.095Z,1.20
2019-03-15T11:26:13.968Z,1.30
2019-03-15T11:28:38.655Z,1.90
2019-03-15T11:31:06.509Z,1.30
2019-03-15T11:33:34.762Z,1.20
2019-03-15T11:36:02.664Z,1.17
2019-03-15T11:38:30.707Z,1.02
2019-03-15T11:40:58.591Z,1.47
2019-03-15T11:43:26.328Z,1.37
2019-03-15T11:45:54.137Z,1.30
2019-03-15T11:48:22.146Z,1.20
2019-03-15T11:50:49.878Z,1.47
2019-03-15T11:53:19.045Z,1.40
2019-03-15T11:55:47.047Z,1.32
2019-03-15T11:58:15.892Z,1.50
2019-03-15T12:00:43.749Z,1.70
2019-03-15T12:03:11.644Z,1.95
2019-03-15T12:05:39.787Z,1.62
2019-03-15T12:08:08.488Z,1.67
2019-03-15T12:10:36.434Z,1.40
2019-03-15T12:13:04.225Z,1.60
2019-03-15T12:15:32.220Z,1.92
2019-03-15T12:17:59.900Z,1.47
2019-03-15T12:20:28.002Z,1.67
2019-03-15T12:22:56.485Z,2.55
2019-03-15T12:25:24.063Z,2.75
2019-03-15T12:27:54.131Z,2.70
2019-03-15T12:30:22.259Z,2.70
2019-03-15T12:32:50.005Z,2.98
2019-03-15T12:35:18.566Z,2.95
2019-03-15T12:37:46.828Z,2.80
2019-03-15T12:40:15.022Z,3.95
2019-03-15T12:42:42.786Z,4.35
2019-03-15T12:45:10.702Z,4.00
2019-03-15T12:47:38.499Z,4.28
2019-03-15T12:50:07.095Z,4.50
2019-03-15T12:52:46.466Z,4.60
2019-03-15T12:55:05.779Z,5.10
2019-03-15T12:57:34.121Z,5.47
2019-03-15T13:00:02.284Z,5.22
2019-03-15T13:02:30.404Z,5.03
2019-03-15T13:04:59.552Z,4.20
2019-03-15T13:07:27.212Z,3.75
2019-03-15T13:09:55.355Z,3.95
2019-03-15T13:12:24.647Z,3.95
2019-03-15T13:14:53.144Z,4.25
2019-03-15T13:17:21.129Z,3.67
2019-03-15T13:19:55.457Z,4.53
2019-03-15T13:22:21.097Z,5.17
2019-03-15T13:24:48.849Z,4.12
2019-03-15T13:27:16.651Z,4.35
2019-03-15T13:29:44.766Z,4.37
2019-03-15T13:32:12.591Z,4.67
2019-03-15T13:34:41.243Z,4.40
2019-03-15T13:37:09.043Z,4.42
2019-03-15T13:39:37.590Z,4.17
2019-03-15T13:42:05.920Z,3.95
2019-03-15T13:44:33.854Z,3.75
2019-03-15T13:47:01.718Z,4.40
2019-03-15T13:49:29.472Z,4.33
2019-03-15T13:51:57.768Z,4.00
2019-03-15T13:54:25.789Z,3.58
2019-03-15T13:56:53.800Z,3.83
2019-03-15T13:59:22.236Z,3.90
2019-03-15T14:01:50.060Z,3.85
2019-03-15T14:04:17.883Z,4.42
2019-03-15T14:06:46.017Z,4.03
2019-03-15T14:09:13.674Z,3.92
2019-03-15T14:11:42.276Z,3.98
2019-03-15T14:14:10.656Z,4.35
2019-03-15T14:16:39.021Z,4.17
2019-03-15T14:19:07.493Z,3.67
2019-03-15T14:21:35.903Z,4.28
2019-03-15T14:24:05.542Z,4.05
2019-03-15T14:26:33.226Z,3.35
2019-03-15T14:29:01.735Z,3.65
2019-03-15T14:31:29.509Z,4.03
2019-03-15T14:33:57.247Z,5.28
2019-03-15T14:36:25.223Z,4.10
2019-03-15T14:38:53.694Z,4.80
2019-03-15T14:41:22.072Z,5.37
2019-03-15T14:43:51.069Z,4.58
2019-03-15T14:46:19.092Z,4.37
2019-03-15T14:48:47.800Z,4.05
2019-03-15T14:51:15.656Z,4.62
2019-03-15T14:53:43.937Z,5.15
2019-03-15T14:56:12.574Z,4.60
2019-03-15T14:58:40.808Z,5.05
2019-03-15T15:01:09.189Z,4.30
2019-03-15T15:03:37.821Z,4.45
2019-03-15T15:06:06.016Z,4.42
2019-03-15T15:08:35.278Z,4.10
2019-03-15T15:11:03.727Z,3.80
2019-03-15T15:13:32.449Z,4.47
2019-03-15T15:16:01.552Z,3.98
2019-03-15T15:18:30.155Z,5.07
2019-03-15T15:20:59.254Z,3.85
2019-03-15T15:23:29.560Z,5.40
2019-03-15T15:25:58.053Z,5.40
2019-03-15T15:28:25.894Z,5.23
2019-03-15T15:30:53.826Z,5.50
2019-03-15T15:33:22.218Z,5.50
2019-03-15T15:35:50.512Z,6.10
2019-03-15T15:38:19.001Z,5.65
2019-03-15T15:40:47.003Z,5.58
2019-03-15T15:43:14.815Z,5.05
2019-03-15T15:45:43.188Z,5.50
2019-03-15T15:48:11.483Z,4.75
2019-03-15T15:50:39.718Z,4.65
2019-03-15T15:53:10.858Z,4.83
2019-03-15T15:55:38.043Z,4.30
2019-03-15T15:58:17.251Z,4.37
2019-03-15T16:00:37.300Z,4.37
2019-03-15T16:03:05.689Z,4.00
2019-03-15T16:05:34.189Z,3.25
2019-03-15T16:08:03.176Z,4.05
2019-03-15T16:10:32.542Z,3.80
2019-03-15T16:13:02.830Z,3.60
2019-03-15T16:15:32.174Z,3.73
2019-03-15T16:18:00.674Z,3.70
2019-03-15T16:20:28.884Z,4.13
2019-03-15T16:22:56.923Z,3.37
2019-03-15T16:25:25.334Z,3.40
2019-03-15T16:27:53.656Z,3.13
2019-03-15T16:30:21.964Z,3.53
2019-03-15T16:32:50.151Z,3.47
2019-03-15T16:35:18.696Z,3.45
2019-03-15T16:37:47.459Z,3.55
2019-03-15T16:40:15.456Z,3.60
2019-03-15T16:42:43.385Z,3.70
2019-03-15T16:45:15.358Z,3.67
2019-03-15T16:47:43.918Z,3.20
2019-03-15T16:50:12.042Z,2.90
2019-03-15T16:52:39.989Z,3.33
2019-03-15T16:55:09.385Z,3.30
2019-03-15T16:57:37.990Z,2.70
2019-03-15T17:00:07.264Z,2.53
2019-03-15T17:02:35.760Z,2.20
2019-03-15T17:05:04.052Z,2.52
2019-03-15T17:07:31.901Z,3.00
2019-03-15T17:10:00.151Z,3.70
2019-03-15T17:12:28.435Z,3.85
2019-03-15T17:14:56.381Z,4.80
2019-03-15T17:17:24.425Z,4.78
2019-03-15T17:19:54.240Z,4.00
2019-03-15T17:22:22.786Z,4.85
2019-03-15T17:24:51.235Z,5.50
2019-03-15T17:27:19.874Z,4.80
2019-03-15T17:29:48.935Z,5.40
2019-03-15T17:32:17.003Z,6.30
2019-03-15T17:34:45.382Z,6.00
2019-03-15T17:37:13.467Z,6.80
2019-03-15T17:39:43.934Z,7.10
2019-03-15T17:42:11.875Z,5.95
2019-03-15T17:44:40.100Z,7.70
2019-03-15T17:47:09.066Z,7.05
2019-03-15T17:49:37.852Z,7.65
2019-03-15T17:52:06.368Z,7.75
2019-03-15T17:54:34.816Z,6.90
2019-03-15T17:57:02.809Z,7.90
2019-03-15T17:59:30.980Z,7.27
2019-03-15T18:01:59.164Z,6.30
2019-03-15T18:04:27.809Z,5.70
2019-03-15T18:06:56.161Z,5.65
2019-03-15T18:09:25.385Z,7.33
2019-03-15T18:11:53.778Z,6.83
2019-03-15T18:14:22.552Z,6.90
2019-03-15T18:16:50.782Z,7.10
2019-03-15T18:19:19.214Z,7.75
2019-03-15T18:21:47.870Z,6.63
2019-03-15T18:24:15.978Z,7.70
2019-03-15T18:26:43.870Z,8.53
2019-03-15T18:29:25.692Z,7.45
2019-03-15T18:31:44.146Z,8.20
2019-03-15T18:34:12.407Z,6.83
2019-03-15T18:36:43.211Z,6.70
2019-03-15T18:39:11.792Z,6.63
2019-03-15T18:41:39.796Z,6.63
2019-03-15T18:44:08.604Z,6.05
2019-03-15T18:46:36.739Z,5.85
2019-03-15T18:49:05.036Z,5.90
2019-03-15T18:51:33.380Z,5.50
2019-03-15T18:54:01.602Z,6.20
2019-03-15T18:56:29.939Z,5.85
2019-03-15T18:58:58.103Z,5.47
2019-03-15T19:01:26.241Z,5.50
2019-03-15T19:03:54.635Z,5.70
2019-03-15T19:06:23.173Z,5.97
2019-03-15T19:08:52.887Z,6.40
2019-03-15T19:11:21.713Z,6.60
2019-03-15T19:13:50.347Z,6.00
2019-03-15T19:16:20.257Z,5.50
2019-03-15T19:18:48.798Z,5.45
2019-03-15T19:21:16.650Z,6.30
2019-03-15T19:23:45.089Z,5.77
2019-03-15T19:26:13.437Z,5.87
2019-03-15T19:28:42.087Z,5.65
2019-03-15T19:31:14.599Z,5.60
2019-03-15T19:33:42.468Z,5.30
2019-03-15T19:36:10.539Z,5.50
2019-03-15T19:38:39.132Z,6.07
2019-03-15T19:41:07.602Z,5.60
2019-03-15T19:43:35.459Z,6.17
2019-03-15T19:46:03.959Z,5.20
2019-03-15T19:48:32.522Z,5.07
2019-03-15T19:51:00.753Z,5.50
2019-03-15T19:53:29.632Z,5.43
2019-03-15T19:55:59.528Z,4.87
2019-03-15T19:58:28.712Z,5.15
2019-03-15T20:00:56.913Z,5.07
2019-03-15T20:03:24.959Z,4.67
2019-03-15T20:05:53.718Z,5.40
2019-03-15T20:08:21.999Z,4.40
2019-03-15T20:10:51.554Z,4.87
2019-03-15T20:13:20.026Z,4.72
2019-03-15T20:15:50.831Z,4.77
2019-03-15T20:18:21.151Z,5.17
2019-03-15T20:20:52.208Z,4.70
2019-03-15T20:23:21.535Z,3.85
2019-03-15T20:25:50.008Z,4.50
2019-03-15T20:28:18.743Z,4.63
2019-03-15T20:30:51.985Z,4.03
2019-03-15T20:33:16.699Z,5.00
2019-03-15T20:35:45.124Z,4.27
2019-03-15T20:38:13.072Z,3.47
2019-03-15T20:40:41.632Z,4.30
2019-03-15T20:43:10.213Z,3.47
2019-03-15T20:45:38.196Z,4.35
2019-03-15T20:48:06.665Z,4.12
2019-03-15T20:50:46.109Z,3.98
2019-03-15T20:53:09.928Z,3.45
2019-03-15T20:55:35.542Z,4.30
2019-03-15T20:58:03.850Z,4.00
2019-03-15T21:00:36.067Z,3.67
2019-03-15T21:03:02.486Z,3.70
2019-03-15T21:05:31.314Z,3.50
2019-03-15T21:08:00.811Z,3.53
2019-03-15T21:10:29.136Z,3.10
2019-03-15T21:12:56.994Z,3.40
2019-03-15T21:15:26.829Z,3.50
2019-03-15T21:17:55.034Z,3.43
2019-03-15T21:20:23.206Z,3.75
2019-03-15T21:22:51.524Z,4.20
2019-03-15T21:25:20.238Z,2.57
2019-03-15T21:27:53.965Z,2.80
2019-03-15T21:30:21.981Z,3.70
2019-03-15T21:32:50.012Z,3.62
2019-03-15T21:35:18.127Z,2.93
2019-03-15T21:37:46.473Z,3.15
2019-03-15T21:40:14.629Z,3.20
2019-03-15T21:42:42.808Z,3.12
2019-03-15T21:45:10.717Z,3.45
2019-03-15T21:47:39.073Z,3.10
2019-03-15T21:50:09.814Z,2.60
2019-03-15T21:52:37.990Z,2.75
2019-03-15T21:55:05.995Z,2.73
2019-03-15T21:57:34.003Z,2.63
2019-03-15T22:00:02.054Z,2.60
2019-03-15T22:02:30.392Z,3.00
2019-03-15T22:04:59.007Z,2.97
2019-03-15T22:07:27.350Z,2.45
2019-03-15T22:09:56.307Z,3.05
2019-03-15T22:12:24.693Z,2.50
2019-03-15T22:14:53.337Z,2.57
2019-03-15T22:17:24.715Z,2.63
2019-03-15T22:19:52.465Z,3.42
2019-03-15T22:22:23.520Z,2.60
2019-03-15T22:24:51.930Z,2.45
2019-03-15T22:27:20.720Z,2.60
2019-03-15T22:29:53.725Z,2.50
2019-03-15T22:32:19.137Z,2.43
2019-03-15T22:34:47.796Z,2.27
2019-03-15T22:37:15.980Z,2.50
2019-03-15T22:39:44.085Z,2.58
2019-03-15T22:42:11.990Z,1.80
2019-03-15T22:44:40.665Z,2.20
2019-03-15T22:47:09.537Z,2.05
2019-03-15T22:49:37.670Z,2.45
2019-03-15T22:52:08.454Z,2.25
2019-03-15T22:54:36.473Z,2.50
2019-03-15T22:57:04.815Z,1.90
2019-03-15T22:59:33.262Z,2.30
2019-03-15T23:02:02.699Z,2.60
2019-03-15T23:04:31.730Z,2.12
2019-03-15T23:07:01.269Z,2.40
2019-03-15T23:09:30.011Z,2.40
2019-03-15T23:11:58.222Z,2.10
2019-03-15T23:14:28.034Z,1.77
2019-03-15T23:16:57.284Z,1.90
2019-03-15T23:19:27.499Z,1.60
2019-03-15T23:21:57.597Z,1.70
2019-03-15T23:24:26.554Z,1.77
2019-03-15T23:26:55.261Z,1.60
2019-03-15T23:29:25.173Z,2.27
2019-03-15T23:31:57.083Z,1.77
2019-03-15T23:34:25.716Z,1.80
2019-03-15T23:36:55.603Z,1.90
2019-03-15T23:39:25.614Z,1.80
2019-03-15T23:41:55.518Z,1.87
2019-03-15T23:44:24.520Z,1.80
2019-03-15T23:46:52.732Z,2.00
2019-03-15T23:49:22.510Z,1.75
2019-03-15T23:51:50.541Z,1.80
2019-03-15T23:54:19.330Z,1.37
2019-03-15T23:56:48.565Z,1.60
2019-03-15T23:59:16.652Z,1.57
